createdAt,value
2018-09-10T00:00:16.479Z,1.30
2018-09-10T00:01:16.477Z,1.30
2018-09-10T00:02:16.474Z,1.20
2018-09-10T00:03:16.471Z,1.20
2018-09-10T00:04:16.475Z,1.20
2018-09-10T00:05:16.470Z,1.30
2018-09-10T00:06:16.468Z,1.20
2018-09-10T00:07:16.463Z,1.40
2018-09-10T00:08:16.468Z,1.10
2018-09-10T00:09:16.461Z,1.40
2018-09-10T00:10:16.460Z,1.10
2018-09-10T00:11:16.459Z,1.30
2018-09-10T00:12:16.450Z,1.20
2018-09-10T00:13:16.447Z,1.20
2018-09-10T00:14:16.446Z,1.00
2018-09-10T00:15:16.444Z,1.10
2018-09-10T00:16:16.448Z,1.20
2018-09-10T00:17:16.446Z,1.50
2018-09-10T00:18:16.442Z,1.20
2018-09-10T00:19:16.444Z,1.50
2018-09-10T00:20:16.434Z,1.30
2018-09-10T00:21:16.430Z,1.30
2018-09-10T00:22:16.440Z,1.10
2018-09-10T00:23:16.431Z,1.20
2018-09-10T00:24:16.426Z,1.40
2018-09-10T00:25:16.424Z,1.20
2018-09-10T00:26:16.425Z,1.20
2018-09-10T00:27:16.416Z,1.20
2018-09-10T00:28:16.419Z,1.20
2018-09-10T00:29:16.421Z,1.00
2018-09-10T00:30:16.415Z,1.20
2018-09-10T00:31:16.413Z,1.10
2018-09-10T00:32:16.409Z,1.40
2018-09-10T00:33:16.405Z,1.20
2018-09-10T00:34:16.402Z,1.10
2018-09-10T00:35:16.401Z,1.10
2018-09-10T00:36:16.403Z,1.20
2018-09-10T00:37:16.399Z,1.10
2018-09-10T00:38:16.395Z,1.10
2018-09-10T00:39:16.390Z,1.30
2018-09-10T00:40:16.397Z,1.00
2018-09-10T00:41:16.393Z,1.20
2018-09-10T00:42:16.389Z,1.40
2018-09-10T00:43:16.387Z,1.20
2018-09-10T00:44:16.380Z,1.20
2018-09-10T00:45:16.376Z,1.00
2018-09-10T00:46:16.376Z,1.10
2018-09-10T00:47:16.372Z,1.20
2018-09-10T00:48:16.375Z,1.10
2018-09-10T00:49:16.373Z,1.10
2018-09-10T00:50:16.371Z,1.10
2018-09-10T00:51:16.369Z,1.10
2018-09-10T00:52:16.363Z,1.20
2018-09-10T00:53:16.360Z,1.00
2018-09-10T00:54:16.363Z,1.30
2018-09-10T00:55:16.358Z,1.10
2018-09-10T00:56:16.353Z,1.20
2018-09-10T00:57:16.348Z,1.10
2018-09-10T00:58:16.347Z,1.30
2018-09-10T00:59:16.347Z,1.10
2018-09-10T01:00:16.347Z,1.00
2018-09-10T01:01:16.344Z,1.00
2018-09-10T01:02:16.343Z,1.10
2018-09-10T01:03:16.340Z,1.10
2018-09-10T01:04:16.333Z,1.20
2018-09-10T01:05:16.334Z,1.30
2018-09-10T01:06:16.329Z,1.20
2018-09-10T01:07:16.327Z,1.40
2018-09-10T01:08:16.329Z,1.00
2018-09-10T01:09:16.326Z,1.10
2018-09-10T01:10:16.319Z,1.10
2018-09-10T01:11:16.318Z,1.20
2018-09-10T01:12:16.319Z,1.20
2018-09-10T01:13:16.317Z,1.10
2018-09-10T01:14:16.317Z,1.10
2018-09-10T01:15:16.314Z,1.30
2018-09-10T01:16:16.307Z,1.20
2018-09-10T01:17:16.302Z,1.20
2018-09-10T01:18:16.301Z,1.00
2018-09-10T01:19:16.300Z,1.20
2018-09-10T01:20:16.302Z,1.10
2018-09-10T01:21:16.298Z,1.20
2018-09-10T01:22:16.296Z,1.20
2018-09-10T01:23:16.294Z,1.10
2018-09-10T01:24:16.287Z,1.20
2018-09-10T01:25:16.286Z,1.20
2018-09-10T01:26:16.287Z,1.20
2018-09-10T01:27:16.285Z,1.00
2018-09-10T01:28:16.278Z,1.20
2018-09-10T01:29:16.277Z,1.10
2018-09-10T01:30:16.275Z,1.10
2018-09-10T01:31:16.274Z,1.00
2018-09-10T01:32:16.276Z,1.00
2018-09-10T01:33:16.273Z,1.30
2018-09-10T01:34:16.274Z,1.10
2018-09-10T01:35:16.270Z,1.10
2018-09-10T01:36:16.261Z,1.10
2018-09-10T01:37:16.259Z,1.10
2018-09-10T01:38:16.263Z,1.20
2018-09-10T01:39:16.254Z,1.10
2018-09-10T01:40:16.256Z,1.10
2018-09-10T01:41:16.262Z,1.10
2018-09-10T01:42:16.247Z,1.40
2018-09-10T01:43:16.246Z,1.10
2018-09-10T01:44:16.252Z,1.20
2018-09-10T01:45:16.245Z,1.20
2018-09-10T01:46:16.243Z,1.40
2018-09-10T01:47:16.241Z,1.30
2018-09-10T01:48:16.235Z,1.20
2018-09-10T01:49:16.230Z,1.30
2018-09-10T01:50:16.229Z,1.20
2018-09-10T01:51:16.231Z,1.40
2018-09-10T01:52:16.235Z,1.50
2018-09-10T01:53:16.226Z,1.20
2018-09-10T01:54:16.226Z,1.20
2018-09-10T01:55:16.220Z,1.50
2018-09-10T01:56:16.214Z,1.20
2018-09-10T01:57:16.210Z,1.30
2018-09-10T01:58:16.212Z,1.20
2018-09-10T01:59:16.212Z,1.30
2018-09-10T02:00:16.202Z,1.40
2018-09-10T02:01:16.200Z,1.30
2018-09-10T02:02:16.197Z,1.60
2018-09-10T02:03:16.194Z,1.40
2018-09-10T02:04:16.197Z,1.50
2018-09-10T02:05:16.192Z,1.40
2018-09-10T02:06:16.190Z,1.40
2018-09-10T02:07:16.188Z,1.40
2018-09-10T02:08:16.180Z,1.40
2018-09-10T02:09:16.178Z,1.40
2018-09-10T02:10:16.173Z,1.50
2018-09-10T02:11:16.170Z,1.70
2018-09-10T02:12:16.172Z,1.50
2018-09-10T02:13:16.168Z,1.30
2018-09-10T02:14:16.163Z,1.40
2018-09-10T02:15:16.159Z,1.50
2018-09-10T02:16:16.161Z,1.50
2018-09-10T02:17:16.256Z,1.40
2018-09-10T02:18:16.159Z,1.30
2018-09-10T02:19:16.155Z,1.50
2018-09-10T02:20:16.210Z,1.30
2018-09-10T02:21:16.142Z,1.40
2018-09-10T02:22:16.140Z,1.30
2018-09-10T02:23:16.138Z,1.30
2018-09-10T02:24:16.139Z,1.40
2018-09-10T02:25:16.135Z,1.50
2018-09-10T02:26:16.133Z,1.40
2018-09-10T02:27:16.154Z,1.20
2018-09-10T02:28:16.125Z,1.40
2018-09-10T02:29:16.179Z,1.50
2018-09-10T02:30:16.121Z,1.60
2018-09-10T02:31:16.118Z,1.60
2018-09-10T02:32:16.116Z,1.30
2018-09-10T02:33:16.107Z,1.60
2018-09-10T02:34:16.103Z,1.60
2018-09-10T02:35:16.101Z,1.60
2018-09-10T02:36:16.102Z,1.20
2018-09-10T02:37:16.102Z,1.40
2018-09-10T02:38:16.095Z,1.40
2018-09-10T02:39:16.092Z,1.30
2018-09-10T02:40:16.085Z,1.40
2018-09-10T02:41:16.082Z,1.40
2018-09-10T02:42:16.080Z,1.30
2018-09-10T02:43:16.077Z,1.50
2018-09-10T02:44:16.079Z,1.50
2018-09-10T02:45:16.076Z,1.50
2018-09-10T02:46:16.066Z,1.40
2018-09-10T02:47:16.064Z,1.60
2018-09-10T02:48:16.068Z,1.50
2018-09-10T02:49:16.065Z,1.40
2018-09-10T02:50:16.060Z,1.50
2018-09-10T02:51:16.056Z,1.70
2018-09-10T02:52:16.050Z,1.60
2018-09-10T02:53:16.046Z,1.60
2018-09-10T02:54:16.048Z,1.30
2018-09-10T02:55:16.112Z,1.70
2018-09-10T02:56:16.041Z,1.50
2018-09-10T02:57:16.036Z,1.70
2018-09-10T02:58:16.037Z,1.80
2018-09-10T02:59:16.032Z,1.60
2018-09-10T03:00:16.025Z,1.70
2018-09-10T03:01:16.021Z,1.40
2018-09-10T03:02:16.023Z,1.50
2018-09-10T03:03:16.020Z,1.60
2018-09-10T03:04:16.014Z,1.80
2018-09-10T03:05:16.008Z,1.60
2018-09-10T03:06:16.008Z,1.60
2018-09-10T03:07:16.005Z,1.80
2018-09-10T03:08:16.004Z,1.50
2018-09-10T03:09:16.000Z,1.40
2018-09-10T03:10:15.998Z,1.40
2018-09-10T03:11:15.997Z,1.50
2018-09-10T03:12:15.987Z,1.60
2018-09-10T03:13:15.984Z,1.50
2018-09-10T03:14:15.980Z,1.80
2018-09-10T03:15:15.978Z,1.70
2018-09-10T03:16:15.980Z,1.90
2018-09-10T03:17:15.976Z,1.80
2018-09-10T03:18:15.970Z,1.90
2018-09-10T03:19:15.967Z,1.70
2018-09-10T03:20:15.973Z,1.60
2018-09-10T03:21:15.964Z,1.60
2018-09-10T03:22:15.961Z,1.70
2018-09-10T03:23:15.959Z,1.90
2018-09-10T03:24:15.975Z,2.00
2018-09-10T03:25:15.947Z,1.70
2018-09-10T03:26:15.944Z,1.90
2018-09-10T03:27:15.942Z,2.00
2018-09-10T03:28:15.946Z,1.60
2018-09-10T03:29:15.940Z,2.00
2018-09-10T03:30:15.940Z,1.70
2018-09-10T03:31:15.938Z,2.10
2018-09-10T03:32:15.927Z,1.80
2018-09-10T03:33:15.924Z,1.80
2018-09-10T03:34:15.925Z,2.10
2018-09-10T03:35:15.924Z,1.90
2018-09-10T03:36:15.920Z,2.00
2018-09-10T03:37:15.913Z,1.50
2018-09-10T03:38:15.907Z,1.80
2018-09-10T03:39:15.912Z,2.30
2018-09-10T03:40:15.907Z,2.10
2018-09-10T03:41:15.903Z,1.80
2018-09-10T03:42:15.901Z,1.70
2018-09-10T03:43:15.900Z,1.60
2018-09-10T03:44:15.947Z,1.90
2018-09-10T03:45:15.891Z,1.50
2018-09-10T03:46:15.885Z,1.70
2018-09-10T03:47:15.922Z,1.70
2018-09-10T03:48:15.887Z,1.50
2018-09-10T03:49:15.881Z,1.90
2018-09-10T03:50:15.882Z,1.80
2018-09-10T03:51:15.869Z,1.60
2018-09-10T03:52:15.873Z,1.80
2018-09-10T03:53:15.869Z,1.80
2018-09-10T03:54:15.866Z,1.90
2018-09-10T03:55:15.862Z,1.80
2018-09-10T03:56:15.855Z,1.70
2018-09-10T03:57:15.851Z,1.90
2018-09-10T03:58:15.853Z,1.80
2018-09-10T03:59:15.846Z,1.80
2018-09-10T04:00:15.848Z,1.80
2018-09-10T04:01:15.848Z,2.00
2018-09-10T04:02:15.845Z,1.70
2018-09-10T04:03:15.840Z,1.60
2018-09-10T04:04:15.833Z,1.80
2018-09-10T04:05:15.829Z,2.20
2018-09-10T04:06:15.839Z,1.80
2018-09-10T04:07:15.829Z,1.70
2018-09-10T04:08:15.821Z,2.10
2018-09-10T04:09:15.816Z,2.30
2018-09-10T04:10:15.815Z,2.10
2018-09-10T04:11:15.812Z,2.20
2018-09-10T04:12:15.812Z,2.00
2018-09-10T04:13:15.810Z,2.00
2018-09-10T04:14:15.807Z,1.90
2018-09-10T04:15:15.807Z,2.00
2018-09-10T04:16:15.798Z,1.80
2018-09-10T04:17:15.887Z,2.20
2018-09-10T04:18:15.790Z,2.20
2018-09-10T04:19:15.789Z,2.20
2018-09-10T04:20:15.850Z,2.20
2018-09-10T04:21:15.787Z,2.50
2018-09-10T04:22:15.779Z,2.00
2018-09-10T04:23:15.776Z,2.20
2018-09-10T04:24:15.779Z,2.40
2018-09-10T04:25:15.775Z,2.10
2018-09-10T04:26:15.774Z,2.20
2018-09-10T04:27:15.772Z,2.30
2018-09-10T04:28:15.763Z,2.20
2018-09-10T04:29:15.759Z,2.30
2018-09-10T04:30:15.756Z,2.30
2018-09-10T04:31:15.757Z,2.20
2018-09-10T04:32:15.757Z,2.90
2018-09-10T04:33:15.753Z,2.50
2018-09-10T04:34:15.749Z,2.70
2018-09-10T04:35:15.748Z,2.50
2018-09-10T04:36:15.835Z,2.20
2018-09-10T04:37:15.736Z,2.40
2018-09-10T04:38:15.738Z,2.60
2018-09-10T04:39:15.735Z,2.60
2018-09-10T04:40:15.728Z,2.50
2018-09-10T04:41:15.725Z,2.80
2018-09-10T04:42:15.809Z,2.90
2018-09-10T04:43:15.720Z,2.70
2018-09-10T04:44:15.722Z,2.40
2018-09-10T04:45:15.718Z,2.80
2018-09-10T04:46:15.717Z,2.50
2018-09-10T04:47:15.719Z,2.70
2018-09-10T04:48:15.705Z,3.10
2018-09-10T04:49:15.701Z,2.90
2018-09-10T04:50:15.702Z,2.70
2018-09-10T04:51:15.696Z,2.90
2018-09-10T04:52:15.697Z,3.10
2018-09-10T04:53:15.694Z,2.90
2018-09-10T04:54:15.688Z,2.90
2018-09-10T04:55:15.685Z,3.20
2018-09-10T04:56:15.686Z,3.70
2018-09-10T04:57:15.688Z,3.00
2018-09-10T04:58:15.768Z,3.20
2018-09-10T04:59:15.677Z,3.30
2018-09-10T05:00:15.669Z,3.20
2018-09-10T05:01:15.666Z,3.20
2018-09-10T05:02:15.664Z,3.20
2018-09-10T05:03:15.663Z,3.00
2018-09-10T05:04:15.663Z,3.10
2018-09-10T05:05:15.657Z,3.80
2018-09-10T05:06:15.655Z,3.60
2018-09-10T05:07:15.656Z,3.30
2018-09-10T05:08:15.647Z,3.20
2018-09-10T05:09:15.643Z,3.10
2018-09-10T05:10:15.645Z,3.20
2018-09-10T05:11:15.640Z,3.10
2018-09-10T05:12:15.632Z,3.10
2018-09-10T05:13:15.630Z,3.00
2018-09-10T05:14:15.656Z,3.20
2018-09-10T05:15:15.627Z,3.00
2018-09-10T05:16:15.627Z,3.20
2018-09-10T05:17:15.622Z,3.00
2018-09-10T05:18:15.619Z,3.00
2018-09-10T05:19:15.619Z,3.20
2018-09-10T05:20:15.610Z,3.70
2018-09-10T05:21:15.605Z,2.80
2018-09-10T05:22:15.603Z,3.50
2018-09-10T05:23:15.600Z,3.20
2018-09-10T05:24:15.601Z,3.00
2018-09-10T05:25:15.598Z,3.10
2018-09-10T05:26:15.589Z,3.40
2018-09-10T05:27:15.587Z,3.70
2018-09-10T05:28:15.612Z,3.30
2018-09-10T05:29:15.585Z,3.70
2018-09-10T05:30:15.583Z,4.00
2018-09-10T05:31:15.580Z,3.60
2018-09-10T05:32:15.572Z,3.70
2018-09-10T05:33:15.569Z,4.10
2018-09-10T05:34:15.565Z,3.70
2018-09-10T05:35:15.562Z,3.60
2018-09-10T05:36:15.564Z,4.00
2018-09-10T05:37:15.560Z,3.90
2018-09-10T05:38:15.558Z,3.60
2018-09-10T05:39:15.556Z,3.90
2018-09-10T05:40:15.549Z,3.80
2018-09-10T05:41:15.545Z,3.50
2018-09-10T05:42:15.546Z,3.40
2018-09-10T05:43:15.544Z,3.30
2018-09-10T05:44:15.539Z,3.40
2018-09-10T05:45:15.534Z,3.00
2018-09-10T05:46:15.529Z,3.30
2018-09-10T05:47:15.527Z,3.00
2018-09-10T05:48:15.529Z,4.00
2018-09-10T05:49:15.525Z,3.90
2018-09-10T05:50:15.523Z,4.40
2018-09-10T05:51:15.520Z,4.00
2018-09-10T05:52:15.512Z,4.60
2018-09-10T05:53:15.525Z,4.40
2018-09-10T05:54:15.507Z,4.50
2018-09-10T05:55:15.504Z,4.30
2018-09-10T05:56:15.507Z,4.70
2018-09-10T05:57:15.502Z,4.50
2018-09-10T05:58:15.496Z,4.60
2018-09-10T05:59:15.493Z,4.00
2018-09-10T06:00:15.495Z,4.10
2018-09-10T06:01:15.491Z,4.40
2018-09-10T06:02:15.490Z,4.40
2018-09-10T06:03:15.484Z,4.20
2018-09-10T06:04:15.479Z,3.70
2018-09-10T06:05:15.474Z,4.00
2018-09-10T06:06:15.473Z,3.60
2018-09-10T06:07:15.469Z,3.80
2018-09-10T06:08:15.472Z,3.70
2018-09-10T06:09:15.467Z,3.20
2018-09-10T06:10:15.467Z,3.40
2018-09-10T06:11:15.464Z,3.80
2018-09-10T06:12:15.456Z,4.00
2018-09-10T06:13:15.454Z,4.40
2018-09-10T06:14:15.456Z,4.60
2018-09-10T06:15:15.455Z,4.90
2018-09-10T06:16:15.449Z,5.30
2018-09-10T06:17:15.442Z,5.40
2018-09-10T06:18:15.440Z,5.50
2018-09-10T06:19:15.438Z,5.20
2018-09-10T06:20:15.440Z,5.30
2018-09-10T06:21:15.437Z,5.30
2018-09-10T06:22:15.435Z,4.90
2018-09-10T06:23:15.432Z,5.50
2018-09-10T06:24:15.425Z,5.20
2018-09-10T06:25:15.427Z,5.40
2018-09-10T06:26:15.419Z,5.80
2018-09-10T06:27:15.418Z,5.60
2018-09-10T06:28:15.421Z,5.70
2018-09-10T06:29:15.417Z,5.50
2018-09-10T06:30:15.438Z,5.20
2018-09-10T06:31:15.410Z,5.50
2018-09-10T06:32:15.411Z,6.10
2018-09-10T06:33:15.408Z,6.00
2018-09-10T06:34:15.493Z,6.10
2018-09-10T06:35:15.403Z,5.50
2018-09-10T06:36:15.408Z,6.00
2018-09-10T06:37:15.520Z,5.80
2018-09-10T06:38:15.392Z,6.10
2018-09-10T06:39:15.389Z,6.10
2018-09-10T06:40:15.393Z,6.40
2018-09-10T06:41:15.390Z,5.90
2018-09-10T06:42:15.386Z,5.90
2018-09-10T06:43:15.390Z,6.40
2018-09-10T06:44:15.379Z,6.20
2018-09-10T06:45:15.376Z,5.80
2018-09-10T06:46:15.380Z,5.80
2018-09-10T06:47:15.377Z,5.40
2018-09-10T06:48:15.370Z,5.50
2018-09-10T06:49:15.367Z,5.50
2018-09-10T06:50:15.371Z,5.30
2018-09-10T06:51:15.364Z,5.30
2018-09-10T06:52:15.367Z,5.80
2018-09-10T06:53:15.365Z,5.50
2018-09-10T06:54:15.365Z,5.60
2018-09-10T06:55:15.361Z,5.70
2018-09-10T06:56:15.353Z,6.40
2018-09-10T06:57:15.351Z,6.80
2018-09-10T06:58:15.350Z,6.30
2018-09-10T06:59:15.349Z,6.80
2018-09-10T07:00:15.426Z,6.60
2018-09-10T07:01:15.348Z,6.60
2018-09-10T07:02:15.342Z,6.00
2018-09-10T07:03:15.340Z,6.20
2018-09-10T07:04:15.344Z,6.40
2018-09-10T07:05:15.343Z,6.30
2018-09-10T07:06:15.342Z,6.20
2018-09-10T07:07:15.339Z,6.30
2018-09-10T07:08:15.333Z,6.90
2018-09-10T07:09:15.332Z,6.10
2018-09-10T07:10:15.328Z,6.70
2018-09-10T07:11:15.326Z,6.80
2018-09-10T07:12:15.330Z,6.50
2018-09-10T07:13:15.369Z,6.10
2018-09-10T07:14:15.325Z,6.40
2018-09-10T07:15:15.325Z,6.00
2018-09-10T07:16:15.320Z,6.20
2018-09-10T07:17:15.317Z,6.30
2018-09-10T07:18:15.321Z,6.30
2018-09-10T07:19:15.321Z,6.20
2018-09-10T07:20:15.315Z,6.10
2018-09-10T07:21:15.314Z,6.60
2018-09-10T07:22:15.313Z,6.00
2018-09-10T07:23:15.316Z,6.70
2018-09-10T07:24:15.315Z,6.30
2018-09-10T07:25:15.315Z,6.30
2018-09-10T07:26:15.317Z,6.20
2018-09-10T07:27:15.315Z,5.80
2018-09-10T07:28:15.309Z,6.50
2018-09-10T07:29:15.307Z,6.20
2018-09-10T07:30:15.308Z,6.00
2018-09-10T07:31:15.306Z,6.50
2018-09-10T07:32:15.311Z,6.50
2018-09-10T07:33:15.312Z,7.00
2018-09-10T07:34:15.309Z,6.80
2018-09-10T07:35:15.305Z,6.20
2018-09-10T07:36:15.309Z,6.40
2018-09-10T07:37:15.308Z,6.00
2018-09-10T07:38:15.310Z,6.50
2018-09-10T07:39:15.311Z,6.60
2018-09-10T07:40:15.306Z,6.30
2018-09-10T07:41:15.305Z,6.00
2018-09-10T07:42:15.311Z,6.30
2018-09-10T07:43:15.310Z,6.10
2018-09-10T07:44:15.413Z,6.70
2018-09-10T07:45:15.306Z,6.00
2018-09-10T07:46:15.314Z,5.90
2018-09-10T07:47:15.312Z,6.50
2018-09-10T07:48:15.315Z,6.00
2018-09-10T07:49:15.317Z,6.50
2018-09-10T07:50:15.312Z,6.10
2018-09-10T07:51:15.313Z,6.60
2018-09-10T07:52:15.319Z,6.20
2018-09-10T07:53:15.320Z,6.40
2018-09-10T07:54:15.320Z,5.80
2018-09-10T07:55:15.323Z,6.00
2018-09-10T07:56:15.319Z,6.50
2018-09-10T07:57:15.321Z,6.10
2018-09-10T07:58:15.324Z,5.80
2018-09-10T07:59:15.325Z,6.20
2018-09-10T08:00:15.332Z,5.80
2018-09-10T08:01:15.332Z,6.40
2018-09-10T08:02:15.336Z,5.90
2018-09-10T08:03:15.339Z,5.90
2018-09-10T08:04:15.339Z,5.90
2018-09-10T08:05:15.342Z,6.30
2018-09-10T08:06:15.343Z,6.10
2018-09-10T08:07:15.345Z,6.90
2018-09-10T08:08:15.342Z,6.40
2018-09-10T08:09:15.384Z,6.20
2018-09-10T08:10:15.350Z,6.10
2018-09-10T08:11:15.353Z,5.80
2018-09-10T08:12:15.355Z,6.60
2018-09-10T08:13:15.357Z,6.20
2018-09-10T08:14:15.359Z,6.20
2018-09-10T08:15:15.365Z,5.80
2018-09-10T08:16:15.359Z,6.10
2018-09-10T08:17:15.361Z,6.60
2018-09-10T08:18:15.363Z,5.80
2018-09-10T08:19:15.367Z,6.20
2018-09-10T08:20:15.372Z,6.10
2018-09-10T08:21:15.374Z,5.60
2018-09-10T08:22:15.373Z,5.70
2018-09-10T08:23:15.378Z,6.10
2018-09-10T08:24:15.426Z,5.80
2018-09-10T08:25:15.415Z,5.50
2018-09-10T08:26:15.389Z,6.00
2018-09-10T08:27:15.392Z,6.00
2018-09-10T08:28:15.392Z,5.90
2018-09-10T08:29:15.396Z,5.30
2018-09-10T08:30:15.458Z,5.60
2018-09-10T08:31:15.407Z,5.50
2018-09-10T08:32:15.417Z,6.20
2018-09-10T08:33:15.422Z,5.50
2018-09-10T08:34:15.429Z,5.60
2018-09-10T08:35:15.434Z,5.70
2018-09-10T08:36:15.437Z,5.70
2018-09-10T08:37:15.443Z,5.50
2018-09-10T08:38:15.455Z,5.80
2018-09-10T08:39:15.463Z,5.80
2018-09-10T08:40:15.465Z,5.50
2018-09-10T08:41:15.472Z,5.50
2018-09-10T08:42:15.481Z,6.40
2018-09-10T08:43:15.487Z,6.20
2018-09-10T08:44:15.501Z,6.10
2018-09-10T08:45:15.511Z,6.00
2018-09-10T08:46:15.517Z,6.20
2018-09-10T08:47:15.526Z,6.00
2018-09-10T08:48:15.540Z,6.40
2018-09-10T08:49:15.533Z,5.80
2018-09-10T08:50:15.540Z,5.60
2018-09-10T08:51:15.548Z,5.50
2018-09-10T08:52:15.558Z,5.50
2018-09-10T08:53:15.565Z,6.20
2018-09-10T08:54:15.760Z,6.00
2018-09-10T08:55:15.690Z,5.60
2018-09-10T08:56:15.856Z,5.80
2018-09-10T08:57:15.593Z,5.50
2018-09-10T08:58:15.598Z,6.60
2018-09-10T08:59:15.605Z,6.20
2018-09-10T09:00:15.609Z,5.70
2018-09-10T09:01:15.611Z,5.50
2018-09-10T09:02:15.617Z,5.30
2018-09-10T09:03:15.622Z,5.70
2018-09-10T09:04:15.633Z,5.70
2018-09-10T09:05:15.639Z,5.70
2018-09-10T09:06:15.669Z,5.80
2018-09-10T09:07:15.650Z,5.70
2018-09-10T09:08:15.652Z,5.10
2018-09-10T09:09:15.656Z,5.30
2018-09-10T09:10:15.666Z,5.30
2018-09-10T09:11:15.670Z,5.60
2018-09-10T09:12:15.673Z,4.80
2018-09-10T09:13:15.676Z,5.50
2018-09-10T09:14:15.682Z,5.40
2018-09-10T09:15:15.688Z,5.40
2018-09-10T09:16:15.699Z,5.00
2018-09-10T09:17:15.708Z,4.80
2018-09-10T09:18:15.711Z,4.80
2018-09-10T09:19:15.718Z,5.40
2018-09-10T09:20:15.721Z,5.50
2018-09-10T09:21:15.728Z,5.20
2018-09-10T09:22:15.736Z,5.20
2018-09-10T09:23:15.787Z,5.10
2018-09-10T09:24:15.757Z,4.60
2018-09-10T09:25:15.767Z,5.00
2018-09-10T09:26:15.772Z,4.60
2018-09-10T09:27:15.782Z,5.00
2018-09-10T09:28:15.796Z,4.80
2018-09-10T09:29:15.804Z,5.00
2018-09-10T09:30:15.899Z,5.20
2018-09-10T09:31:15.825Z,4.90
2018-09-10T09:32:15.830Z,5.10
2018-09-10T09:33:15.841Z,4.30
2018-09-10T09:34:15.851Z,4.60
2018-09-10T09:35:15.861Z,4.30
2018-09-10T09:36:15.913Z,4.20
2018-09-10T09:37:15.884Z,3.50
2018-09-10T09:38:15.894Z,3.50
2018-09-10T09:39:15.905Z,3.80
2018-09-10T09:40:15.911Z,4.50
2018-09-10T09:41:15.923Z,4.00
2018-09-10T09:42:15.938Z,3.90
2018-09-10T09:43:15.994Z,3.80
2018-09-10T09:44:15.958Z,3.40
2018-09-10T09:45:15.970Z,3.90
2018-09-10T09:46:15.981Z,4.10
2018-09-10T09:47:15.996Z,3.80
2018-09-10T09:48:16.014Z,3.80
2018-09-10T09:49:16.026Z,4.00
2018-09-10T09:50:16.038Z,3.70
2018-09-10T09:51:16.093Z,3.50
2018-09-10T09:52:16.061Z,4.00
2018-09-10T09:53:16.073Z,3.60
2018-09-10T09:54:16.086Z,3.30
2018-09-10T09:55:16.101Z,3.00
2018-09-10T09:56:16.119Z,3.10
2018-09-10T09:57:16.131Z,3.00
2018-09-10T09:58:16.139Z,3.30
2018-09-10T09:59:16.151Z,4.00
2018-09-10T10:00:16.170Z,2.80
2018-09-10T10:01:16.181Z,3.00
2018-09-10T10:02:16.192Z,2.80
2018-09-10T10:03:16.207Z,3.20
2018-09-10T10:04:16.265Z,3.30
2018-09-10T10:05:16.222Z,3.00
2018-09-10T10:06:16.234Z,3.30
2018-09-10T10:07:16.245Z,3.30
2018-09-10T10:08:16.261Z,2.80
2018-09-10T10:09:16.271Z,3.60
2018-09-10T10:10:16.333Z,3.40
2018-09-10T10:11:16.296Z,3.20
2018-09-10T10:12:16.449Z,3.10
2018-09-10T10:13:16.307Z,2.80
2018-09-10T10:14:16.322Z,2.40
2018-09-10T10:15:16.332Z,2.60
2018-09-10T10:16:16.366Z,2.30
2018-09-10T10:17:16.346Z,2.60
2018-09-10T10:18:16.355Z,2.80
2018-09-10T10:19:16.365Z,2.80
2018-09-10T10:20:16.378Z,2.60
2018-09-10T10:21:16.386Z,2.50
2018-09-10T10:22:16.405Z,2.80
2018-09-10T10:23:16.407Z,3.10
2018-09-10T10:24:16.409Z,2.90
2018-09-10T10:25:16.416Z,2.60
2018-09-10T10:26:16.426Z,2.60
2018-09-10T10:27:16.436Z,2.50
2018-09-10T10:28:16.583Z,2.30
2018-09-10T10:29:16.457Z,2.30
2018-09-10T10:30:16.462Z,2.10
2018-09-10T10:31:16.469Z,2.40
2018-09-10T10:32:16.483Z,2.00
2018-09-10T10:33:16.491Z,1.70
2018-09-10T10:34:16.500Z,2.00
2018-09-10T10:35:16.509Z,2.00
2018-09-10T10:36:16.513Z,2.00
2018-09-10T10:37:16.521Z,1.80
2018-09-10T10:38:16.532Z,1.60
2018-09-10T10:39:16.552Z,2.10
2018-09-10T10:40:16.553Z,1.90
2018-09-10T10:41:16.560Z,2.00
2018-09-10T10:42:16.569Z,2.00
2018-09-10T10:43:16.579Z,2.60
2018-09-10T10:44:16.582Z,2.40
2018-09-10T10:45:16.590Z,2.50
2018-09-10T10:46:16.602Z,2.30
2018-09-10T10:47:16.616Z,2.40
2018-09-10T10:48:16.616Z,2.10
2018-09-10T10:49:16.621Z,2.50
2018-09-10T10:50:16.626Z,1.80
2018-09-10T10:51:16.633Z,1.90
2018-09-10T10:52:16.646Z,2.00
2018-09-10T10:53:16.651Z,1.90
2018-09-10T10:54:16.660Z,2.10
2018-09-10T10:55:16.666Z,2.10
2018-09-10T10:56:16.669Z,2.20
2018-09-10T10:57:16.677Z,2.60
2018-09-10T10:58:16.681Z,2.20
2018-09-10T10:59:16.687Z,2.20
2018-09-10T11:00:16.698Z,2.30
2018-09-10T11:01:16.754Z,2.20
2018-09-10T11:02:16.710Z,1.90
2018-09-10T11:03:16.711Z,2.00
2018-09-10T11:04:16.793Z,1.90
2018-09-10T11:05:16.727Z,1.70
2018-09-10T11:06:16.733Z,1.60
2018-09-10T11:07:16.740Z,1.50
2018-09-10T11:08:16.742Z,1.90
2018-09-10T11:09:16.747Z,1.80
2018-09-10T11:10:16.753Z,2.30
2018-09-10T11:11:16.758Z,2.10
2018-09-10T11:12:16.769Z,1.80
2018-09-10T11:13:16.774Z,2.10
2018-09-10T11:14:16.779Z,2.10
2018-09-10T11:15:16.785Z,1.90
2018-09-10T11:16:16.785Z,1.80
2018-09-10T11:17:16.791Z,2.00
2018-09-10T11:18:16.801Z,1.60
2018-09-10T11:19:16.806Z,1.60
2018-09-10T11:20:16.808Z,1.40
2018-09-10T11:21:16.815Z,1.50
2018-09-10T11:22:16.838Z,1.60
2018-09-10T11:23:16.824Z,1.30
2018-09-10T11:24:16.834Z,1.30
2018-09-10T11:25:16.838Z,1.60
2018-09-10T11:26:16.842Z,1.20
2018-09-10T11:27:16.849Z,1.50
2018-09-10T11:28:16.849Z,1.70
2018-09-10T11:29:16.854Z,1.40
2018-09-10T11:30:16.859Z,1.50
2018-09-10T11:31:16.862Z,1.50
2018-09-10T11:32:16.872Z,1.30
2018-09-10T11:33:16.878Z,1.50
2018-09-10T11:34:16.879Z,1.30
2018-09-10T11:35:16.883Z,1.70
2018-09-10T11:36:16.891Z,1.70
2018-09-10T11:37:16.896Z,1.60
2018-09-10T11:38:16.904Z,1.40
2018-09-10T11:39:16.906Z,1.30
2018-09-10T11:40:16.906Z,1.60
2018-09-10T11:41:16.913Z,1.40
2018-09-10T11:42:16.914Z,1.40
2018-09-10T11:43:16.919Z,1.80
2018-09-10T11:44:16.929Z,1.30
2018-09-10T11:45:16.933Z,1.50
2018-09-10T11:46:16.938Z,1.60
2018-09-10T11:47:16.942Z,1.60
2018-09-10T11:48:16.943Z,1.30
2018-09-10T11:49:16.946Z,1.50
2018-09-10T11:50:16.955Z,1.50
2018-09-10T11:51:16.961Z,1.60
2018-09-10T11:52:16.997Z,1.30
2018-09-10T11:53:16.965Z,1.40
2018-09-10T11:54:16.973Z,1.70
2018-09-10T11:55:16.975Z,1.50
2018-09-10T11:56:16.987Z,1.90
2018-09-10T11:57:16.992Z,1.60
2018-09-10T11:58:16.994Z,1.50
2018-09-10T11:59:16.999Z,1.60
2018-09-10T12:00:17.000Z,1.70
2018-09-10T12:01:17.003Z,1.80
2018-09-10T12:02:17.014Z,1.70
2018-09-10T12:03:17.013Z,1.70
2018-09-10T12:04:17.023Z,1.60
2018-09-10T12:05:17.028Z,1.30
2018-09-10T12:06:17.026Z,1.70
2018-09-10T12:07:17.030Z,1.80
2018-09-10T12:08:17.051Z,1.40
2018-09-10T12:09:17.045Z,1.50
2018-09-10T12:10:17.049Z,1.70
2018-09-10T12:11:17.054Z,1.40
2018-09-10T12:12:17.057Z,1.50
2018-09-10T12:13:17.060Z,1.50
2018-09-10T12:14:17.064Z,1.20
2018-09-10T12:15:17.068Z,1.40
2018-09-10T12:16:17.077Z,1.30
2018-09-10T12:17:17.080Z,1.60
2018-09-10T12:18:17.086Z,1.60
2018-09-10T12:19:17.090Z,1.50
2018-09-10T12:20:17.090Z,1.40
2018-09-10T12:21:17.093Z,1.40
2018-09-10T12:22:17.100Z,1.40
2018-09-10T12:23:17.106Z,1.90
2018-09-10T12:24:17.105Z,1.40
2018-09-10T12:25:17.108Z,1.20
2018-09-10T12:26:17.113Z,1.40
2018-09-10T12:27:17.117Z,1.40
2018-09-10T12:28:17.126Z,1.20
2018-09-10T12:29:17.129Z,1.20
2018-09-10T12:30:17.133Z,1.20
2018-09-10T12:31:17.138Z,1.20
2018-09-10T12:32:17.148Z,1.20
2018-09-10T12:33:17.140Z,1.30
2018-09-10T12:34:17.152Z,1.30
2018-09-10T12:35:17.148Z,1.20
2018-09-10T12:36:17.163Z,2.10
2018-09-10T12:37:17.158Z,1.40
2018-09-10T12:38:17.158Z,1.20
2018-09-10T12:39:17.174Z,1.30
2018-09-10T12:40:17.171Z,1.10
2018-09-10T12:41:17.174Z,1.20
2018-09-10T12:42:17.181Z,1.10
2018-09-10T12:43:17.182Z,1.10
2018-09-10T12:44:17.182Z,1.30
2018-09-10T12:45:17.184Z,1.40
2018-09-10T12:46:17.220Z,1.40
2018-09-10T12:47:17.190Z,1.20
2018-09-10T12:48:17.200Z,1.30
2018-09-10T12:49:17.203Z,1.40
2018-09-10T12:50:17.206Z,1.10
2018-09-10T12:51:17.210Z,1.30
2018-09-10T12:52:17.212Z,1.30
2018-09-10T12:53:17.212Z,1.50
2018-09-10T12:54:17.221Z,1.60
2018-09-10T12:55:17.237Z,1.60
2018-09-10T12:56:17.224Z,1.60
2018-09-10T12:57:17.229Z,1.40
2018-09-10T12:58:17.231Z,1.50
2018-09-10T12:59:17.235Z,1.50
2018-09-10T13:00:17.244Z,1.60
2018-09-10T13:01:17.249Z,1.30
2018-09-10T13:02:17.249Z,1.40
2018-09-10T13:03:17.254Z,1.70
2018-09-10T13:04:17.288Z,1.70
2018-09-10T13:05:17.256Z,1.40
2018-09-10T13:06:17.261Z,1.30
2018-09-10T13:07:17.268Z,1.50
2018-09-10T13:08:17.275Z,1.30
2018-09-10T13:09:17.277Z,1.30
2018-09-10T13:10:17.276Z,1.10
2018-09-10T13:11:17.280Z,1.30
2018-09-10T13:12:17.291Z,1.20
2018-09-10T13:13:17.291Z,1.40
2018-09-10T13:14:17.294Z,1.30
2018-09-10T13:15:17.303Z,1.40
2018-09-10T13:16:17.362Z,1.30
2018-09-10T13:17:17.299Z,1.40
2018-09-10T13:18:17.304Z,1.40